createdAt,value
2019-01-24T00:01:57.188Z,-3.00
2019-01-24T00:04:26.449Z,-2.90
2019-01-24T00:06:55.646Z,-2.90
2019-01-24T00:09:24.845Z,-2.90
2019-01-24T00:11:55.411Z,-2.90
2019-01-24T00:14:25.371Z,-2.90
2019-01-24T00:16:54.653Z,-2.80
2019-01-24T00:19:23.975Z,-2.80
2019-01-24T00:21:56.035Z,-2.80
2019-01-24T00:24:25.225Z,-2.90
2019-01-24T00:26:54.492Z,-2.70
2019-01-24T00:29:23.780Z,-2.70
2019-01-24T00:31:53.032Z,-2.70
2019-01-24T00:34:23.364Z,-2.70
2019-01-24T00:36:52.968Z,-2.60
2019-01-24T00:39:22.167Z,-2.70
2019-01-24T00:41:51.368Z,-2.60
2019-01-24T00:44:21.076Z,-2.70
2019-01-24T00:46:50.276Z,-2.60
2019-01-24T00:49:19.462Z,-2.50
2019-01-24T00:51:48.656Z,-2.50
2019-01-24T00:54:17.890Z,-2.50
2019-01-24T00:56:47.462Z,-2.50
2019-01-24T00:59:16.706Z,-2.60
2019-01-24T01:01:45.902Z,-2.50
2019-01-24T01:04:15.131Z,-2.50
2019-01-24T01:06:44.406Z,-2.50
2019-01-24T01:09:13.592Z,-2.50
2019-01-24T01:11:42.883Z,-2.50
2019-01-24T01:14:12.129Z,-2.50
2019-01-24T01:16:41.392Z,-2.50
2019-01-24T01:19:10.596Z,-2.50
2019-01-24T01:21:40.432Z,-2.50
2019-01-24T01:24:09.630Z,-2.50
2019-01-24T01:26:38.850Z,-2.40
2019-01-24T01:29:08.117Z,-2.50
2019-01-24T01:31:37.483Z,-2.50
2019-01-24T01:34:06.686Z,-2.50
2019-01-24T01:36:35.976Z,-2.60
2019-01-24T01:39:08.447Z,-2.60
2019-01-24T01:41:38.040Z,-2.50
2019-01-24T01:44:07.288Z,-2.60
2019-01-24T01:46:36.484Z,-2.50
2019-01-24T01:49:05.688Z,-2.50
2019-01-24T01:51:34.880Z,-2.50
2019-01-24T01:54:04.080Z,-2.50
2019-01-24T01:56:33.368Z,-2.50
2019-01-24T01:59:02.553Z,-2.50
2019-01-24T02:01:31.751Z,-2.60
2019-01-24T02:04:00.943Z,-2.60
2019-01-24T02:06:30.129Z,-2.50
2019-01-24T02:08:59.456Z,-2.40
2019-01-24T02:11:28.656Z,-2.40
2019-01-24T02:13:57.852Z,-2.40
2019-01-24T02:16:27.073Z,-2.30
2019-01-24T02:18:56.254Z,-2.30
2019-01-24T02:21:26.064Z,-2.30
2019-01-24T02:23:55.453Z,-2.30
2019-01-24T02:26:24.653Z,-2.30
2019-01-24T02:28:53.836Z,-2.40
2019-01-24T02:31:23.085Z,-2.50
2019-01-24T02:33:52.514Z,-2.40
2019-01-24T02:36:21.685Z,-2.40
2019-01-24T02:38:50.886Z,-2.40
2019-01-24T02:41:20.148Z,-2.50
2019-01-24T02:43:49.312Z,-2.50
2019-01-24T02:46:18.508Z,-2.50
2019-01-24T02:48:47.710Z,-2.50
2019-01-24T02:51:19.448Z,-2.40
2019-01-24T02:53:48.616Z,-2.40
2019-01-24T02:56:17.839Z,-2.50
2019-01-24T02:58:48.485Z,-2.40
2019-01-24T03:01:17.721Z,-2.50
2019-01-24T03:03:47.142Z,-2.50
2019-01-24T03:06:16.680Z,-2.40
2019-01-24T03:08:45.854Z,-2.40
2019-01-24T03:11:15.077Z,-2.40
2019-01-24T03:13:44.281Z,-2.50
2019-01-24T03:16:13.555Z,-2.60
2019-01-24T03:18:42.742Z,-2.70
2019-01-24T03:21:12.179Z,-2.80
2019-01-24T03:23:41.543Z,-2.90
2019-01-24T03:26:10.758Z,-2.80
2019-01-24T03:28:39.990Z,-2.80
2019-01-24T03:31:09.176Z,-2.80
2019-01-24T03:33:38.661Z,-2.80
2019-01-24T03:36:07.852Z,-2.80
2019-01-24T03:38:37.086Z,-2.70
2019-01-24T03:41:06.559Z,-2.60
2019-01-24T03:43:35.760Z,-2.60
2019-01-24T03:46:04.964Z,-2.60
2019-01-24T03:48:34.184Z,-2.70
2019-01-24T03:51:03.359Z,-2.70
2019-01-24T03:53:33.019Z,-2.50
2019-01-24T03:56:02.217Z,-2.50
2019-01-24T03:58:31.897Z,-2.60
2019-01-24T04:01:01.109Z,-2.50
2019-01-24T04:03:30.334Z,-2.60
2019-01-24T04:05:59.703Z,-2.50
2019-01-24T04:08:28.902Z,-2.60
2019-01-24T04:10:58.261Z,-2.50
2019-01-24T04:13:27.495Z,-2.50
2019-01-24T04:15:56.735Z,-2.50
2019-01-24T04:18:25.973Z,-2.50
2019-01-24T04:20:55.260Z,-2.40
2019-01-24T04:23:24.540Z,-2.40
2019-01-24T04:25:53.760Z,-2.40
2019-01-24T04:28:23.223Z,-2.40
2019-01-24T04:30:52.479Z,-2.40
2019-01-24T04:33:21.675Z,-2.50
2019-01-24T04:35:50.936Z,-2.40
2019-01-24T04:38:20.207Z,-2.50
2019-01-24T04:40:49.409Z,-2.50
2019-01-24T04:43:18.681Z,-2.50
2019-01-24T04:45:48.131Z,-2.50
2019-01-24T04:48:17.344Z,-2.50
2019-01-24T04:50:46.600Z,-2.40
2019-01-24T04:53:15.800Z,-2.40
2019-01-24T04:55:45.116Z,-2.40
2019-01-24T04:58:14.373Z,-2.40
2019-01-24T05:00:43.564Z,-2.40
2019-01-24T05:03:12.759Z,-2.30
2019-01-24T05:05:42.024Z,-2.40
2019-01-24T05:08:11.353Z,-2.40
2019-01-24T05:10:40.663Z,-2.40
2019-01-24T05:13:09.903Z,-2.40
2019-01-24T05:15:39.096Z,-2.40
2019-01-24T05:18:08.571Z,-2.40
2019-01-24T05:20:37.781Z,-2.50
2019-01-24T05:23:07.006Z,-2.40
2019-01-24T05:25:36.193Z,-2.30
2019-01-24T05:28:05.502Z,-2.30
2019-01-24T05:30:34.928Z,-2.40
2019-01-24T05:33:04.435Z,-2.40
2019-01-24T05:35:34.916Z,-2.40
2019-01-24T05:38:04.467Z,-2.30
2019-01-24T05:40:33.668Z,-2.30
2019-01-24T05:43:03.293Z,-2.30
2019-01-24T05:45:32.678Z,-2.30
2019-01-24T05:48:01.856Z,-2.30
2019-01-24T05:50:31.160Z,-2.30
2019-01-24T05:53:00.422Z,-2.30
2019-01-24T05:55:29.756Z,-2.40
2019-01-24T05:57:59.020Z,-2.30
2019-01-24T06:00:44.871Z,-2.40
2019-01-24T06:03:14.076Z,-2.30
2019-01-24T06:05:43.683Z,-2.40
2019-01-24T06:08:12.952Z,-2.40
2019-01-24T06:10:42.747Z,-2.40
2019-01-24T06:13:11.981Z,-2.30
2019-01-24T06:15:41.216Z,-2.30
2019-01-24T06:18:10.484Z,-2.30
2019-01-24T06:20:39.668Z,-2.20
2019-01-24T06:23:08.986Z,-2.20
2019-01-24T06:25:38.434Z,-2.20
2019-01-24T06:28:07.741Z,-2.20
2019-01-24T06:30:37.005Z,-2.30
2019-01-24T06:33:06.217Z,-2.30
2019-01-24T06:35:36.308Z,-2.40
2019-01-24T06:38:05.759Z,-2.40
2019-01-24T06:40:35.059Z,-2.50
2019-01-24T06:43:04.269Z,-2.60
2019-01-24T06:45:34.621Z,-2.30
2019-01-24T06:48:03.845Z,-2.30
2019-01-24T06:50:34.574Z,-2.30
2019-01-24T06:53:03.777Z,-2.30
2019-01-24T06:55:32.980Z,-2.40
2019-01-24T06:58:02.176Z,-2.30
2019-01-24T07:00:31.456Z,-2.30
2019-01-24T07:03:00.657Z,-2.40
2019-01-24T07:05:29.873Z,-2.40
2019-01-24T07:07:59.069Z,-2.40
2019-01-24T07:10:28.353Z,-2.30
2019-01-24T07:12:57.541Z,-2.50
2019-01-24T07:15:27.015Z,-2.50
2019-01-24T07:17:56.302Z,-2.40
2019-01-24T07:20:25.525Z,-2.30
2019-01-24T07:22:54.707Z,-2.30
2019-01-24T07:25:26.045Z,-2.30
2019-01-24T07:27:55.427Z,-2.30
2019-01-24T07:30:24.705Z,-2.30
2019-01-24T07:32:54.595Z,-2.30
2019-01-24T07:35:23.951Z,-2.20
2019-01-24T07:37:53.156Z,-2.30
2019-01-24T07:40:22.459Z,-2.20
2019-01-24T07:42:51.997Z,-2.20
2019-01-24T07:45:24.395Z,-2.00
2019-01-24T07:47:53.655Z,-2.00
2019-01-24T07:50:22.876Z,-2.10
2019-01-24T07:52:52.054Z,-2.10
2019-01-24T07:55:21.393Z,-2.10
2019-01-24T07:57:50.616Z,-2.00
2019-01-24T08:00:24.840Z,-2.20
2019-01-24T08:02:54.032Z,-2.20
2019-01-24T08:05:23.832Z,-2.30
2019-01-24T08:07:53.024Z,-2.20
2019-01-24T08:10:22.456Z,-2.30
2019-01-24T08:12:51.632Z,-2.30
2019-01-24T08:15:21.292Z,-2.30
2019-01-24T08:17:51.207Z,-2.30
2019-01-24T08:20:22.488Z,-2.20
2019-01-24T08:22:51.738Z,-2.20
2019-01-24T08:25:21.054Z,-2.10
2019-01-24T08:27:50.545Z,-2.00
2019-01-24T08:30:25.232Z,-2.00
2019-01-24T08:32:54.403Z,-1.90
2019-01-24T08:35:23.619Z,-1.80
2019-01-24T08:37:52.884Z,-1.70
2019-01-24T08:40:22.389Z,-1.80
2019-01-24T08:42:52.080Z,-1.70
2019-01-24T08:45:21.484Z,-1.60
2019-01-24T08:47:50.977Z,-1.60
2019-01-24T08:50:21.718Z,-1.50
2019-01-24T08:52:51.080Z,-1.50
2019-01-24T08:55:35.272Z,-1.70
2019-01-24T08:58:05.888Z,-1.80
2019-01-24T09:00:35.128Z,-1.80
2019-01-24T09:03:04.907Z,-1.70
2019-01-24T09:05:34.138Z,-1.60
2019-01-24T09:08:03.542Z,-1.70
2019-01-24T09:10:38.033Z,-1.50
2019-01-24T09:13:08.182Z,-1.70
2019-01-24T09:15:38.195Z,-1.70
2019-01-24T09:18:08.354Z,-1.80
2019-01-24T09:20:37.572Z,-1.80
2019-01-24T09:23:07.522Z,-1.70
2019-01-24T09:25:36.724Z,-1.80
2019-01-24T09:28:05.940Z,-1.70
2019-01-24T09:30:35.122Z,-1.70
2019-01-24T09:33:04.307Z,-1.60
2019-01-24T09:35:33.577Z,-1.60
2019-01-24T09:38:02.775Z,-1.50
2019-01-24T09:40:31.976Z,-1.50
2019-01-24T09:43:01.233Z,-1.50
2019-01-24T09:45:30.840Z,-1.40
2019-01-24T09:48:01.574Z,-1.30
2019-01-24T09:50:31.353Z,-1.30
2019-01-24T09:53:00.574Z,-1.20
2019-01-24T09:55:29.782Z,-1.10
2019-01-24T09:57:59.194Z,-1.10
2019-01-24T10:00:30.684Z,-1.00
2019-01-24T10:03:00.249Z,-0.90
2019-01-24T10:05:29.518Z,-0.90
2019-01-24T10:07:58.817Z,-0.80
2019-01-24T10:10:28.458Z,-0.70
2019-01-24T10:12:58.580Z,-0.60
2019-01-24T10:15:28.201Z,-0.50
2019-01-24T10:17:57.412Z,-0.50
2019-01-24T10:20:27.485Z,-0.40
2019-01-24T10:22:57.153Z,-0.40
2019-01-24T10:25:32.629Z,-0.50
2019-01-24T10:28:01.849Z,-0.60
2019-01-24T10:30:31.081Z,-0.60
2019-01-24T10:33:00.606Z,-0.50
2019-01-24T10:35:30.158Z,-0.50
2019-01-24T10:37:59.336Z,-0.40
2019-01-24T10:40:30.687Z,-0.30
2019-01-24T10:43:00.006Z,-0.30
2019-01-24T10:45:29.212Z,-0.40
2019-01-24T10:47:58.624Z,-0.40
2019-01-24T10:50:28.059Z,-0.30
2019-01-24T10:52:57.257Z,-0.20
2019-01-24T10:55:27.665Z,-0.10
2019-01-24T10:57:59.019Z,-0.20
2019-01-24T11:00:33.231Z,-0.10
2019-01-24T11:03:04.231Z,-0.20
2019-01-24T11:05:33.997Z,-0.30
2019-01-24T11:08:03.462Z,-0.50
2019-01-24T11:10:32.743Z,-0.40
2019-01-24T11:13:01.947Z,-0.40
2019-01-24T11:15:31.189Z,-0.30
2019-01-24T11:18:00.387Z,-0.30
2019-01-24T11:20:29.657Z,-0.30
2019-01-24T11:22:58.853Z,-0.20
2019-01-24T11:25:28.995Z,-0.20
2019-01-24T11:27:58.268Z,-0.10
2019-01-24T11:30:28.667Z,0.00
2019-01-24T11:32:57.903Z,0.00
2019-01-24T11:35:29.571Z,-0.20
2019-01-24T11:37:59.156Z,0.00
2019-01-24T11:40:28.431Z,0.00
2019-01-24T11:42:57.615Z,0.00
2019-01-24T11:45:29.619Z,0.10
2019-01-24T11:47:58.815Z,0.10
2019-01-24T11:50:28.079Z,0.10
2019-01-24T11:52:57.243Z,0.00
2019-01-24T11:55:26.528Z,0.00
2019-01-24T11:57:55.742Z,0.10
2019-01-24T12:00:32.773Z,0.10
2019-01-24T12:03:02.412Z,0.10
2019-01-24T12:05:31.627Z,0.10
2019-01-24T12:08:01.032Z,0.10
2019-01-24T12:10:30.237Z,0.00
2019-01-24T12:12:59.444Z,-0.10
2019-01-24T12:15:28.947Z,0.00
2019-01-24T12:17:58.135Z,0.10
2019-01-24T12:20:27.427Z,0.00
2019-01-24T12:22:56.875Z,-0.10
2019-01-24T12:25:26.047Z,0.00
2019-01-24T12:27:55.317Z,0.00
2019-01-24T12:30:26.763Z,0.10
2019-01-24T12:32:56.268Z,0.20
2019-01-24T12:35:25.564Z,0.20
2019-01-24T12:37:54.755Z,0.20
2019-01-24T12:40:23.928Z,0.20
2019-01-24T12:42:53.126Z,0.20
2019-01-24T12:45:24.837Z,0.30
2019-01-24T12:47:54.673Z,0.20
2019-01-24T12:50:24.683Z,0.30
2019-01-24T12:52:54.085Z,0.20
2019-01-24T12:55:23.280Z,0.30
2019-01-24T12:57:53.949Z,0.40
2019-01-24T13:00:25.172Z,0.30
2019-01-24T13:02:54.399Z,0.40
2019-01-24T13:05:23.773Z,0.40
2019-01-24T13:07:53.110Z,0.30
2019-01-24T13:10:23.906Z,0.30
2019-01-24T13:12:53.097Z,0.20
2019-01-24T13:15:24.397Z,0.10
2019-01-24T13:17:53.604Z,0.10
2019-01-24T13:20:23.520Z,0.10
2019-01-24T13:22:52.730Z,0.20
2019-01-24T13:25:24.281Z,0.20
2019-01-24T13:27:53.513Z,0.20
2019-01-24T13:30:24.614Z,0.20
2019-01-24T13:32:53.925Z,0.10
2019-01-24T13:35:23.176Z,-0.10
2019-01-24T13:37:52.560Z,-0.10
2019-01-24T13:40:24.014Z,0.00
2019-01-24T13:42:53.289Z,0.10
2019-01-24T13:45:24.664Z,0.10
2019-01-24T13:47:53.921Z,0.10
2019-01-24T13:50:25.049Z,0.20
2019-01-24T13:52:54.656Z,0.10
2019-01-24T13:55:23.989Z,0.10
2019-01-24T13:57:53.161Z,0.00
2019-01-24T14:00:24.870Z,0.10
2019-01-24T14:02:58.185Z,0.10
2019-01-24T14:05:27.397Z,0.10
2019-01-24T14:07:56.637Z,0.20
2019-01-24T14:10:26.041Z,0.20
2019-01-24T14:12:55.268Z,0.30
2019-01-24T14:15:24.821Z,0.30
2019-01-24T14:17:54.229Z,0.30
2019-01-24T14:20:23.682Z,0.40
2019-01-24T14:22:52.993Z,0.30
2019-01-24T14:25:22.457Z,0.40
2019-01-24T14:27:51.855Z,0.30
2019-01-24T14:30:23.225Z,0.20
2019-01-24T14:32:53.013Z,0.20
2019-01-24T14:35:22.270Z,0.20
2019-01-24T14:37:51.595Z,0.10
2019-01-24T14:40:20.942Z,0.10
2019-01-24T14:42:50.231Z,0.20
2019-01-24T14:45:21.679Z,0.20
2019-01-24T14:47:51.315Z,0.30
2019-01-24T14:50:22.334Z,0.20
2019-01-24T14:52:54.663Z,1.50
2019-01-24T14:55:24.134Z,2.40
2019-01-24T14:57:53.332Z,1.90
2019-01-24T15:00:31.199Z,1.50
2019-01-24T15:03:00.525Z,1.10
2019-01-24T15:05:29.799Z,1.00
2019-01-24T15:07:59.892Z,0.60
2019-01-24T15:10:29.608Z,0.30
2019-01-24T15:13:00.063Z,0.10
2019-01-24T15:15:29.355Z,0.00
2019-01-24T15:17:58.733Z,0.00
2019-01-24T15:20:27.934Z,-0.20
2019-01-24T15:22:57.127Z,-0.20
2019-01-24T15:25:26.688Z,-0.20
2019-01-24T15:27:55.900Z,-0.20
2019-01-24T15:30:25.414Z,-0.20
2019-01-24T15:32:54.679Z,-0.10
2019-01-24T15:35:24.007Z,-0.20
2019-01-24T15:37:54.640Z,-0.20
2019-01-24T15:40:26.879Z,-0.30
2019-01-24T15:42:56.108Z,-0.40
2019-01-24T15:45:25.899Z,-0.40
2019-01-24T15:47:55.329Z,-0.50
2019-01-24T15:50:24.540Z,-0.50
2019-01-24T15:52:53.869Z,-0.50
2019-01-24T15:55:23.105Z,-0.50
2019-01-24T15:57:52.326Z,-0.60
2019-01-24T16:00:23.998Z,-0.60
2019-01-24T16:02:53.297Z,-0.70
2019-01-24T16:05:22.706Z,-0.80
2019-01-24T16:07:51.927Z,-0.70
2019-01-24T16:10:40.301Z,-0.60
2019-01-24T16:13:09.580Z,-0.70
2019-01-24T16:15:39.062Z,-0.70
2019-01-24T16:18:11.736Z,-0.70
2019-01-24T16:20:41.092Z,-0.70
2019-01-24T16:23:10.364Z,-0.80
2019-01-24T16:25:39.860Z,-0.70
2019-01-24T16:28:09.176Z,-0.70
2019-01-24T16:30:39.115Z,-0.70
2019-01-24T16:33:09.492Z,-0.60
2019-01-24T16:35:39.974Z,-0.70
2019-01-24T16:38:09.922Z,-0.70
2019-01-24T16:40:39.271Z,-0.70
2019-01-24T16:43:08.738Z,-0.50
2019-01-24T16:45:38.038Z,-0.50
2019-01-24T16:48:07.530Z,-0.50
2019-01-24T16:50:36.992Z,-0.60
2019-01-24T16:53:06.337Z,-0.60
2019-01-24T16:55:35.859Z,-0.60
2019-01-24T16:58:06.234Z,-0.60
2019-01-24T17:00:42.189Z,-0.60
2019-01-24T17:03:11.527Z,-0.60
2019-01-24T17:05:41.226Z,-0.50
2019-01-24T17:08:16.472Z,-0.50
2019-01-24T17:10:41.960Z,-0.60
2019-01-24T17:13:11.411Z,-0.60
2019-01-24T17:15:42.193Z,-0.70
2019-01-24T17:18:11.926Z,-0.70
2019-01-24T17:21:00.357Z,-0.90
2019-01-24T17:23:29.794Z,-0.90
2019-01-24T17:26:00.182Z,-0.90
2019-01-24T17:28:30.087Z,-0.80
2019-01-24T17:31:00.056Z,-0.80
2019-01-24T17:33:29.607Z,-0.80
2019-01-24T17:35:59.024Z,-1.00
2019-01-24T17:38:30.033Z,-0.90
2019-01-24T17:41:00.414Z,-0.90
2019-01-24T17:43:29.767Z,-0.90
2019-01-24T17:45:59.199Z,-0.90
2019-01-24T17:48:28.977Z,-1.00
2019-01-24T17:50:58.965Z,-0.90
2019-01-24T17:53:28.880Z,-0.90
2019-01-24T17:55:58.221Z,-0.80
2019-01-24T17:58:29.583Z,-0.90
2019-01-24T18:01:01.815Z,-0.80
2019-01-24T18:03:32.949Z,-0.80
2019-01-24T18:06:03.866Z,-0.80
2019-01-24T18:08:33.154Z,-0.80
2019-01-24T18:11:02.532Z,-0.90
2019-01-24T18:13:32.224Z,-0.90
2019-01-24T18:16:12.539Z,-1.00
2019-01-24T18:18:41.920Z,-1.00
2019-01-24T18:21:12.207Z,-1.00
2019-01-24T18:23:42.446Z,-1.00
2019-01-24T18:26:11.910Z,-0.90
2019-01-24T18:28:41.499Z,-0.90
2019-01-24T18:31:11.202Z,-1.00
2019-01-24T18:33:40.590Z,-1.20
2019-01-24T18:36:10.856Z,-1.20
2019-01-24T18:38:41.288Z,-1.20
2019-01-24T18:41:12.835Z,-1.20
2019-01-24T18:43:43.371Z,-1.20
2019-01-24T18:46:13.518Z,-1.30
2019-01-24T18:48:43.403Z,-1.40
2019-01-24T18:51:13.758Z,-1.50
2019-01-24T18:53:44.940Z,-1.50
2019-01-24T18:56:22.084Z,-1.50
2019-01-24T18:58:51.498Z,-1.40
2019-01-24T19:01:22.198Z,-1.30
2019-01-24T19:03:54.042Z,-1.30
2019-01-24T19:06:23.929Z,-1.30
2019-01-24T19:08:53.585Z,-1.20
2019-01-24T19:11:23.879Z,-1.20
2019-01-24T19:13:53.262Z,-1.30
2019-01-24T19:16:23.728Z,-1.20
2019-01-24T19:18:52.976Z,-1.10
2019-01-24T19:21:22.678Z,-1.10
2019-01-24T19:23:52.387Z,-1.10
2019-01-24T19:26:22.473Z,-1.00
2019-01-24T19:28:53.130Z,-1.00
2019-01-24T19:31:22.855Z,-1.00
2019-01-24T19:33:52.553Z,-1.10
2019-01-24T19:36:23.193Z,-1.20
2019-01-24T19:38:53.157Z,-1.20
2019-01-24T19:41:25.811Z,-1.20
2019-01-24T19:43:55.951Z,-1.20
2019-01-24T19:46:26.065Z,-1.30
2019-01-24T19:48:55.424Z,-1.30
2019-01-24T19:51:27.442Z,-1.30
2019-01-24T19:53:57.417Z,-1.20
2019-01-24T19:56:28.666Z,-1.20
2019-01-24T19:58:59.229Z,-1.10
2019-01-24T20:01:32.223Z,-1.10
2019-01-24T20:04:03.990Z,-1.00
2019-01-24T20:06:33.721Z,-1.10
2019-01-24T20:09:08.903Z,-1.20
2019-01-24T20:11:38.900Z,-1.10
2019-01-24T20:14:08.506Z,-1.00
2019-01-24T20:16:38.574Z,-1.00
2019-01-24T20:19:08.573Z,-1.00
2019-01-24T20:21:40.070Z,-1.00
2019-01-24T20:24:11.122Z,-1.00
2019-01-24T20:26:40.992Z,-1.10
2019-01-24T20:29:13.321Z,-1.10
2019-01-24T20:31:44.056Z,-1.10
2019-01-24T20:34:13.623Z,-1.10
2019-01-24T20:36:43.683Z,-0.90
2019-01-24T20:39:14.514Z,-1.00
2019-01-24T20:41:45.249Z,-0.90
2019-01-24T20:44:14.724Z,-1.00
2019-01-24T20:46:44.731Z,-1.20
2019-01-24T20:49:15.146Z,-1.20
2019-01-24T20:51:44.609Z,-1.10
2019-01-24T20:54:14.108Z,-1.20
2019-01-24T20:56:44.662Z,-1.20
2019-01-24T20:59:15.360Z,-1.20
2019-01-24T21:01:44.800Z,-1.20
2019-01-24T21:04:15.123Z,-1.30
2019-01-24T21:06:45.637Z,-1.50
2019-01-24T21:09:15.129Z,-1.50
2019-01-24T21:11:46.298Z,-1.40
2019-01-24T21:14:16.456Z,-1.50
2019-01-24T21:16:47.127Z,-1.60
2019-01-24T21:19:16.522Z,-1.70
2019-01-24T21:21:46.269Z,-1.70
2019-01-24T21:24:15.999Z,-1.70
2019-01-24T21:26:46.532Z,-1.60
2019-01-24T21:29:15.957Z,-1.60
2019-01-24T21:31:45.413Z,-1.70
2019-01-24T21:34:14.888Z,-1.80
2019-01-24T21:36:44.647Z,-1.80
2019-01-24T21:39:14.613Z,-1.80
2019-01-24T21:41:44.015Z,-1.80
2019-01-24T21:44:14.286Z,-1.90
2019-01-24T21:46:44.260Z,-2.00
2019-01-24T21:49:14.091Z,-1.90
2019-01-24T21:51:43.456Z,-1.90
2019-01-24T21:54:12.792Z,-2.00
2019-01-24T21:56:42.146Z,-1.90
2019-01-24T21:59:11.498Z,-1.90
2019-01-24T22:01:40.767Z,-2.00
2019-01-24T22:04:10.815Z,-2.00
2019-01-24T22:06:40.272Z,-1.90
2019-01-24T22:09:10.059Z,-1.90
2019-01-24T22:11:39.390Z,-1.90
2019-01-24T22:14:08.746Z,-2.00
2019-01-24T22:16:38.342Z,-2.00
2019-01-24T22:19:07.775Z,-2.00
2019-01-24T22:21:37.068Z,-1.90
2019-01-24T22:24:06.499Z,-1.80
2019-01-24T22:26:35.960Z,-2.00
2019-01-24T22:29:05.960Z,-2.10
2019-01-24T22:31:35.208Z,-2.20
2019-01-24T22:34:04.532Z,-2.30
2019-01-24T22:36:33.825Z,-2.30
2019-01-24T22:39:03.512Z,-2.30
2019-01-24T22:41:32.732Z,-2.30
2019-01-24T22:44:01.934Z,-2.30
2019-01-24T22:46:31.180Z,-2.30
2019-01-24T22:49:00.380Z,-2.30
2019-01-24T22:51:29.578Z,-2.40
2019-01-24T22:53:59.000Z,-2.40
2019-01-24T22:56:35.211Z,-2.40
2019-01-24T22:58:59.144Z,-2.40
2019-01-24T23:01:57.591Z,-2.60
2019-01-24T23:04:27.016Z,-2.50
2019-01-24T23:06:56.192Z,-2.60
2019-01-24T23:09:25.835Z,-2.50
2019-01-24T23:11:55.116Z,-2.60
2019-01-24T23:14:24.338Z,-2.60
2019-01-24T23:16:53.540Z,-2.50
2019-01-24T23:19:22.946Z,-2.50
2019-01-24T23:21:52.139Z,-2.50
2019-01-24T23:24:21.341Z,-2.60
2019-01-24T23:26:50.543Z,-2.50
2019-01-24T23:29:19.816Z,-2.50
2019-01-24T23:31:49.032Z,-2.70
2019-01-24T23:34:18.195Z,-2.70
2019-01-24T23:36:47.394Z,-2.80
2019-01-24T23:39:16.772Z,-2.80
2019-01-24T23:41:45.956Z,-2.80
2019-01-24T23:44:15.861Z,-2.80
2019-01-24T23:46:45.052Z,-2.80
2019-01-24T23:49:14.268Z,-2.90
2019-01-24T23:51:43.541Z,-2.80
2019-01-24T23:54:12.740Z,-2.80
2019-01-24T23:56:42.058Z,-2.80
2019-01-24T23:59:11.458Z,-2.90
